Time;durP1;ratioP1;P1;durP2;ratioP2;P2;SDS_P1;SDS_P2;PMS_P1;PMS_P2;Temp;Humidity;BMP_temperature;BMP_pressure;BME280_temperature;BME280_humidity;BME280_pressure;Samples;Min_cycle;Max_cycle;Signal;HPM_P1;HPM_P2
2021/03/04 00:01:45;;;;;;;60.12;31.73;;;;;;;3.82;75.21;100073.62;252119;1104;115952;-68
2021/03/04 00:06:49;;;;;;;60.25;32.60;;;;;;;3.89;75.75;100065.80;252423;1105;118188;-69
2021/03/04 00:11:53;;;;;;;62.67;32.53;;;;;;;3.87;75.60;100057.25;251478;1105;117515;-66
2021/03/04 00:16:56;;;;;;;54.25;29.50;;;;;;;3.83;74.65;100053.34;251498;1105;119150;-67
2021/03/04 00:22:00;;;;;;;60.70;31.60;;;;;;;3.72;74.69;100047.52;252307;1105;116172;-68
2021/03/04 00:27:04;;;;;;;58.07;32.97;;;;;;;3.64;75.94;100047.63;252208;1105;116680;-65
2021/03/04 00:32:08;;;;;;;65.27;32.67;;;;;;;3.66;75.93;100047.45;252555;1104;116186;-67
2021/03/04 00:37:11;;;;;;;58.38;30.72;;;;;;;3.67;76.57;100028.79;253925;1105;115965;-66
2021/03/04 00:42:15;;;;;;;60.08;28.45;;;;;;;3.64;76.98;100018.64;254742;1104;115336;-66
2021/03/04 00:47:19;;;;;;;58.73;27.45;;;;;;;3.66;77.52;100021.91;252754;1105;115631;-66
2021/03/04 00:52:22;;;;;;;60.78;30.27;;;;;;;3.75;77.60;100003.33;254279;1105;115344;-68
2021/03/04 00:57:27;;;;;;;51.42;28.60;;;;;;;3.87;77.59;99993.96;253869;1105;116032;-68
2021/03/04 01:02:29;;;;;;;53.55;26.95;;;;;;;3.94;77.41;99992.22;254545;1105;115400;-68
2021/03/04 01:07:32;;;;;;;50.53;28.43;;;;;;;4.03;76.47;99975.27;253482;1105;115124;-68
2021/03/04 01:12:35;;;;;;;38.75;21.42;;;;;;;4.02;76.48;99957.80;251949;1105;115464;-69
2021/03/04 01:17:39;;;;;;;44.10;26.30;;;;;;;4.02;76.27;99958.62;252297;1105;115656;-68
2021/03/04 01:22:43;;;;;;;44.42;25.75;;;;;;;4.01;77.19;99948.25;253374;1105;115378;-66
2021/03/04 01:27:49;;;;;;;35.53;18.97;;;;;;;3.96;77.29;99946.20;252281;1105;115376;-66
2021/03/04 01:32:53;;;;;;;46.85;24.82;;;;;;;3.93;76.56;99938.66;251769;1105;116371;-66
2021/03/04 01:37:56;;;;;;;42.93;24.60;;;;;;;3.89;76.90;99926.03;252905;1105;115410;-67
2021/03/04 01:42:59;;;;;;;45.58;26.37;;;;;;;3.89;77.56;99918.11;251846;1105;115568;-66
2021/03/04 01:48:04;;;;;;;44.07;23.20;;;;;;;3.91;76.17;99910.84;252232;1105;116655;-66
2021/03/04 01:53:07;;;;;;;35.92;23.30;;;;;;;3.85;76.93;99887.84;252174;1105;116202;-65
2021/03/04 01:58:10;;;;;;;37.87;21.63;;;;;;;3.77;76.16;99891.41;252383;1105;114850;-68
2021/03/04 02:03:14;;;;;;;35.33;19.70;;;;;;;3.69;76.74;99883.61;253283;1104;114990;-67
2021/03/04 02:08:17;;;;;;;41.03;23.10;;;;;;;3.71;78.02;99873.70;252659;1104;116416;-69
2021/03/04 02:13:41;;;;;;;39.70;23.52;;;;;;;3.73;77.08;99864.59;252730;1105;115884;-68
2021/03/04 02:18:58;;;;;;;39.13;23.50;;;;;;;3.70;77.80;99867.60;252335;1105;115740;-68
2021/03/04 02:24:31;;;;;;;32.17;19.73;;;;;;;3.66;77.67;99861.10;251687;1105;116159;-68
2021/03/04 02:30:04;;;;;;;35.87;21.93;;;;;;;3.63;77.88;99853.56;252274;1105;116675;-69
2021/03/04 02:35:18;;;;;;;41.68;21.62;;;;;;;3.67;78.02;99838.98;251866;1105;117801;-68
2021/03/04 02:40:24;;;;;;;46.58;22.50;;;;;;;3.80;77.30;99832.22;252856;1105;116281;-66
2021/03/04 02:45:27;;;;;;;34.13;21.75;;;;;;;3.91;77.12;99827.27;252477;1104;115892;-66
2021/03/04 02:50:31;;;;;;;32.77;19.37;;;;;;;3.94;77.44;99818.16;253651;1105;138527;-69
2021/03/04 02:55:37;;;;;;;36.93;20.62;;;;;;;3.96;76.43;99813.52;254930;1104;114980;-65
2021/03/04 03:00:41;;;;;;;38.75;20.32;;;;;;;4.13;76.03;99821.95;254691;1104;115670;-68
2021/03/04 03:05:46;;;;;;;33.73;19.12;;;;;;;4.20;75.52;99821.01;254900;1105;115340;-69
2021/03/04 03:10:52;;;;;;;36.10;20.82;;;;;;;4.25;75.40;99812.52;254541;1104;114897;-69
2021/03/04 03:15:55;;;;;;;37.73;20.03;;;;;;;4.30;75.87;99812.73;252511;1105;115551;-69
2021/03/04 03:21:00;;;;;;;32.83;19.50;;;;;;;4.30;75.09;99813.55;252630;1105;114870;-65
2021/03/04 03:26:04;;;;;;;33.92;18.67;;;;;;;4.32;75.30;99806.27;252104;1105;116537;-65
2021/03/04 03:31:08;;;;;;;39.00;19.67;;;;;;;4.30;74.69;99800.36;252501;1104;116561;-67
2021/03/04 03:36:12;;;;;;;37.70;18.87;;;;;;;4.23;74.60;99796.88;253024;1105;114897;-67
2021/03/04 03:41:20;;;;;;;36.93;19.42;;;;;;;4.18;75.10;99783.45;251688;1105;116238;-65
2021/03/04 03:46:24;;;;;;;40.20;21.60;;;;;;;4.10;74.99;99780.13;252975;1105;115712;-64
2021/03/04 03:51:30;;;;;;;34.85;19.30;;;;;;;4.08;75.14;99769.77;251726;1105;117175;-65
2021/03/04 03:56:36;;;;;;;40.58;19.42;;;;;;;4.09;74.51;99771.39;251666;1105;115839;-67
2021/03/04 04:01:39;;;;;;;16.00;9.03;;;;;;;3.96;75.81;99768.67;252453;1104;116244;-65
2021/03/04 04:06:44;;;;;;;33.30;16.10;;;;;;;3.96;75.99;99760.77;252123;1105;116180;-65
2021/03/04 04:11:46;;;;;;;41.00;19.73;;;;;;;3.96;75.67;99758.13;252329;1105;115733;-65
2021/03/04 04:16:50;;;;;;;40.50;19.80;;;;;;;3.99;75.33;99755.89;252661;1105;115897;-65
2021/03/04 04:21:54;;;;;;;37.23;21.57;;;;;;;3.98;75.12;99751.63;252092;1104;115556;-66
2021/03/04 04:26:58;;;;;;;48.73;23.07;;;;;;;3.98;75.27;99753.45;253955;1105;115019;-65
2021/03/04 04:32:01;;;;;;;37.73;20.68;;;;;;;3.99;75.71;99753.25;252544;1105;116129;-65
2021/03/04 04:37:05;;;;;;;28.00;17.00;;;;;;;3.96;75.26;99748.39;251600;1105;115898;-68
2021/03/04 04:42:09;;;;;;;33.98;19.32;;;;;;;3.94;75.32;99739.86;253728;1105;116196;-68
2021/03/04 04:47:12;;;;;;;40.43;22.48;;;;;;;3.89;76.27;99736.16;251929;1105;116504;-68
2021/03/04 04:52:16;;;;;;;40.38;23.18;;;;;;;3.97;76.47;99717.56;252127;1105;115819;-68
2021/03/04 04:57:20;;;;;;;35.52;20.00;;;;;;;4.00;75.53;99714.51;251626;1105;118623;-67
2021/03/04 05:02:26;;;;;;;34.65;16.85;;;;;;;3.98;76.42;99713.88;253066;1105;115886;-67
2021/03/04 05:07:30;;;;;;;38.80;21.30;;;;;;;3.92;76.74;99712.05;253373;1105;116537;-67
2021/03/04 05:12:33;;;;;;;31.30;19.20;;;;;;;3.89;77.25;99715.06;254860;1104;115245;-67
2021/03/04 05:17:37;;;;;;;40.43;23.20;;;;;;;3.96;76.70;99716.75;254567;1104;116466;-68
2021/03/04 05:22:45;;;;;;;11.22;6.22;;;;;;;3.94;77.34;99707.39;254275;1105;117682;-67
2021/03/04 05:27:49;;;;;;;31.87;20.75;;;;;;;3.93;76.88;99708.40;251799;1105;116844;-67
2021/03/04 05:32:52;;;;;;;42.27;24.25;;;;;;;4.00;77.23;99714.51;253209;1105;116353;-67
2021/03/04 05:37:56;;;;;;;22.45;12.98;;;;;;;4.03;77.20;99709.67;252705;1105;116036;-69
2021/03/04 05:43:00;;;;;;;34.83;22.45;;;;;;;4.07;77.35;99720.66;252612;1104;115952;-68
2021/03/04 05:48:07;;;;;;;39.20;20.00;;;;;;;4.02;78.15;99715.95;253250;1105;116281;-68
2021/03/04 05:53:14;;;;;;;35.48;18.87;;;;;;;4.07;77.74;99707.46;252701;1105;115333;-67
2021/03/04 05:58:19;;;;;;;39.55;22.05;;;;;;;4.15;78.03;99707.31;252635;1105;115338;-67
2021/03/04 06:03:23;;;;;;;35.90;19.32;;;;;;;4.17;78.51;99702.66;251486;1105;114968;-67
2021/03/04 06:08:27;;;;;;;23.42;13.20;;;;;;;4.15;78.79;99683.58;252226;1104;116064;-67
2021/03/04 06:13:31;;;;;;;32.40;19.85;;;;;;;4.22;78.60;99699.45;251681;1105;116205;-69
2021/03/04 06:18:40;;;;;;;37.33;23.38;;;;;;;4.32;78.23;99710.45;251940;1105;115465;-69
2021/03/04 06:23:43;;;;;;;39.45;21.85;;;;;;;4.32;78.26;99705.98;251975;1105;115452;-68
2021/03/04 06:28:46;;;;;;;49.77;27.50;;;;;;;4.57;77.56;99698.41;251713;1105;115071;-68
2021/03/04 06:33:51;;;;;;;47.00;29.80;;;;;;;4.70;77.58;99703.73;251367;1105;115777;-68
2021/03/04 06:38:57;;;;;;;33.35;21.90;;;;;;;4.79;77.45;99717.58;251587;1105;115809;-68
2021/03/04 06:44:01;;;;;;;47.80;29.47;;;;;;;4.77;77.42;99716.97;251540;1105;115781;-67
2021/03/04 06:49:04;;;;;;;45.17;25.35;;;;;;;4.85;78.43;99729.19;252496;1105;115897;-69
2021/03/04 06:54:07;;;;;;;49.55;28.85;;;;;;;4.89;77.98;99725.14;253066;1105;115698;-67
2021/03/04 06:59:10;;;;;;;41.20;26.60;;;;;;;4.95;78.17;99733.06;251851;1105;115000;-67
2021/03/04 07:04:15;;;;;;;57.05;30.62;;;;;;;4.93;78.22;99732.45;253424;1105;115287;-65
2021/03/04 07:09:20;;;;;;;50.50;28.47;;;;;;;4.98;78.42;99740.59;254392;1105;115332;-64
2021/03/04 07:14:25;;;;;;;56.40;32.55;;;;;;;5.07;78.76;99731.48;252294;1105;116102;-68
2021/03/04 07:19:31;;;;;;;49.77;27.58;;;;;;;5.17;79.05;99725.83;254292;1105;115307;-68
2021/03/04 07:24:34;;;;;;;67.80;38.63;;;;;;;5.27;78.33;99736.00;254132;1105;115659;-67
2021/03/04 07:29:37;;;;;;;50.12;28.77;;;;;;;5.27;78.46;99742.09;253389;1105;115589;-66
2021/03/04 07:34:41;;;;;;;59.93;31.97;;;;;;;5.34;78.09;99736.83;254445;1105;116600;-66
2021/03/04 07:39:47;;;;;;;59.77;36.13;;;;;;;5.43;78.01;99742.75;254337;1104;115750;-66
2021/03/04 07:44:51;;;;;;;52.00;33.42;;;;;;;5.47;77.23;99742.16;252167;1105;115382;-66
2021/03/04 07:49:54;;;;;;;69.13;35.60;;;;;;;5.54;77.57;99728.92;252751;1105;116384;-63
2021/03/04 07:55:09;;;;;;;61.10;32.98;;;;;;;5.51;76.46;99734.61;253138;1104;117727;-67
2021/03/04 08:00:17;;;;;;;48.10;27.15;;;;;;;5.55;77.07;99736.65;251448;1105;116964;-67
2021/03/04 08:05:32;;;;;;;42.17;24.70;;;;;;;5.48;77.02;99733.20;251692;1105;117115;-66
2021/03/04 08:10:44;;;;;;;72.65;41.50;;;;;;;5.44;76.93;99737.27;251431;1105;116320;-66
2021/03/04 08:15:46;;;;;;;62.05;33.67;;;;;;;5.41;77.40;99740.30;251261;1105;115697;-67
2021/03/04 08:20:52;;;;;;;86.45;45.78;;;;;;;5.33;77.06;99751.88;251722;1105;116162;-63
2021/03/04 08:25:56;;;;;;;116.55;56.55;;;;;;;5.29;77.61;99745.36;252129;1105;115927;-65
2021/03/04 08:31:06;;;;;;;80.75;46.08;;;;;;;5.31;77.89;99748.62;253102;1104;116428;-64
2021/03/04 08:36:11;;;;;;;69.12;35.50;;;;;;;5.35;78.00;99762.25;252328;1105;116294;-66
2021/03/04 08:41:23;;;;;;;68.00;39.90;;;;;;;5.39;77.70;99743.15;252533;1104;115667;-63
2021/03/04 08:46:31;;;;;;;68.60;35.60;;;;;;;5.39;76.58;99739.70;252130;1104;115066;-68
2021/03/04 08:51:42;;;;;;;54.55;28.65;;;;;;;5.40;76.06;99734.20;251417;1105;115845;-67
2021/03/04 08:57:05;;;;;;;33.18;20.92;;;;;;;5.46;75.46;99729.14;252312;1105;116057;-66
2021/03/04 09:02:17;;;;;;;37.50;19.90;;;;;;;5.44;75.25;99739.09;252623;1104;115800;-65
2021/03/04 09:07:40;;;;;;;74.35;40.10;;;;;;;5.57;75.04;99737.27;252021;1105;115227;-64
2021/03/04 09:12:45;;;;;;;40.80;23.83;;;;;;;5.58;75.04;99725.67;253270;1104;116144;-64
2021/03/04 09:17:49;;;;;;;54.90;31.42;;;;;;;5.63;74.54;99727.71;253671;1105;115689;-65
2021/03/04 09:22:53;;;;;;;59.85;34.23;;;;;;;5.60;73.66;99739.50;254498;1105;115091;-65
2021/03/04 09:27:57;;;;;;;63.70;35.00;;;;;;;5.67;73.21;99737.69;254067;1104;115962;-65
2021/03/04 09:33:02;;;;;;;62.03;35.43;;;;;;;5.74;73.83;99741.16;254720;1104;115056;-69
2021/03/04 09:38:07;;;;;;;20.72;11.33;;;;;;;5.58;73.08;99738.89;254365;1104;115707;-65
2021/03/04 09:43:16;;;;;;;49.33;30.80;;;;;;;5.73;72.60;99738.71;254042;1104;115048;-68
2021/03/04 09:48:32;;;;;;;14.75;8.75;;;;;;;5.83;72.38;99735.64;254049;1104;116254;-68
2021/03/04 09:53:48;;;;;;;46.60;25.17;;;;;;;5.80;70.64;99728.14;252475;1105;115786;-67
2021/03/04 09:58:52;;;;;;;45.15;27.25;;;;;;;5.91;70.80;99732.83;252104;1105;115598;-65
2021/03/04 10:04:01;;;;;;;53.83;29.15;;;;;;;6.00;70.57;99739.55;252017;1105;116058;-66
2021/03/04 10:09:07;;;;;;;21.07;10.82;;;;;;;5.95;69.75;99732.22;252295;1105;116186;-69
2021/03/04 10:14:14;;;;;;;50.07;26.83;;;;;;;6.03;70.20;99726.72;252295;1104;115686;-65
2021/03/04 10:19:18;;;;;;;60.17;34.92;;;;;;;6.07;70.29;99733.23;251534;1105;115615;-66
2021/03/04 10:24:21;;;;;;;65.28;30.55;;;;;;;6.03;70.20;99726.72;251771;1105;115926;-69
2021/03/04 10:29:27;;;;;;;65.20;32.42;;;;;;;6.12;70.18;99724.66;251985;1105;115677;-66
2021/03/04 10:34:31;;;;;;;50.38;28.50;;;;;;;6.24;70.17;99716.91;252580;1105;115115;-66
2021/03/04 10:39:34;;;;;;;36.03;19.32;;;;;;;6.29;70.06;99723.22;251517;1105;115433;-68
2021/03/04 10:44:38;;;;;;;37.13;22.80;;;;;;;6.42;69.60;99720.52;253014;1104;115404;-66
2021/03/04 10:49:40;;;;;;;48.90;26.70;;;;;;;6.53;69.00;99718.26;251698;1105;116009;-69
2021/03/04 10:54:43;;;;;;;50.67;27.35;;;;;;;6.52;67.79;99716.63;251202;1105;117415;-67
2021/03/04 10:59:46;;;;;;;46.28;28.98;;;;;;;6.65;68.05;99724.55;252216;1105;116715;-64
2021/03/04 11:04:49;;;;;;;51.53;28.15;;;;;;;6.85;67.15;99714.66;251852;1104;115928;-68
2021/03/04 11:09:52;;;;;;;49.27;25.43;;;;;;;6.87;65.93;99719.76;252147;1104;116121;-67
2021/03/04 11:15:15;;;;;;;57.45;28.25;;;;;;;6.86;67.00;99713.64;251782;1105;115574;-66
2021/03/04 11:20:18;;;;;;;35.63;21.57;;;;;;;6.72;66.60;99704.14;252602;1105;116022;-67
2021/03/04 11:25:21;;;;;;;50.88;27.00;;;;;;;6.74;65.48;99707.37;253409;1105;115358;-69
2021/03/04 11:30:28;;;;;;;87.45;45.65;;;;;;;6.84;65.37;99699.80;254568;1105;116866;-65
2021/03/04 11:35:31;;;;;;;26.27;18.15;;;;;;;6.75;65.34;99687.80;254556;1104;115751;-69
2021/03/04 11:40:35;;;;;;;40.15;23.10;;;;;;;6.86;66.01;99679.20;254643;1104;115904;-70
2021/03/04 11:45:39;;;;;;;55.83;31.10;;;;;;;6.94;68.30;99691.39;254156;1105;115906;-67
2021/03/04 11:50:44;;;;;;;45.55;25.77;;;;;;;6.94;67.43;99680.80;254594;1104;116269;-68
2021/03/04 11:55:48;;;;;;;44.33;30.50;;;;;;;6.93;67.73;99679.17;253391;1105;116056;-67
2021/03/04 12:00:54;;;;;;;36.45;23.22;;;;;;;6.81;67.63;99671.06;253783;1105;116779;-67
2021/03/04 12:05:59;;;;;;;47.43;27.55;;;;;;;6.80;68.53;99672.09;252418;1104;115861;-67
2021/03/04 12:11:03;;;;;;;53.20;26.75;;;;;;;6.47;69.22;99684.66;251761;1105;117977;-67
2021/03/04 12:16:08;;;;;;;50.10;28.80;;;;;;;6.28;70.26;99681.87;253948;1105;116198;-68
2021/03/04 12:21:12;;;;;;;40.55;22.80;;;;;;;6.02;70.29;99676.66;252237;1104;115921;-66
2021/03/04 12:26:16;;;;;;;44.08;26.35;;;;;;;5.97;70.61;99671.98;251471;1105;115902;-67
2021/03/04 12:31:19;;;;;;;31.93;18.92;;;;;;;5.89;69.49;99680.13;253007;1104;116023;-67
2021/03/04 12:36:22;;;;;;;35.27;21.53;;;;;;;5.84;68.64;99673.78;252034;1105;176186;-67
2021/03/04 12:41:26;;;;;;;43.50;23.13;;;;;;;5.64;68.18;99685.20;251761;1105;116590;-66
2021/03/04 12:46:31;;;;;;;32.35;16.62;;;;;;;5.51;69.48;99690.47;251580;1105;115025;-66
2021/03/04 12:51:35;;;;;;;22.52;14.50;;;;;;;5.39;68.80;99686.83;251371;1105;116271;-67
2021/03/04 12:56:38;;;;;;;27.80;18.07;;;;;;;4.91;70.36;99684.28;251522;1105;115424;-67
2021/03/04 13:01:42;;;;;;;35.52;23.45;;;;;;;4.83;70.16;99684.48;251989;1105;115815;-67
2021/03/04 13:06:46;;;;;;;46.45;25.15;;;;;;;4.82;70.07;99682.05;252281;1105;116371;-68
2021/03/04 13:11:50;;;;;;;36.70;20.62;;;;;;;4.65;70.01;99689.48;252658;1105;115873;-68
2021/03/04 13:16:53;;;;;;;41.90;24.32;;;;;;;4.74;71.02;99683.84;253859;1105;115958;-67
2021/03/04 13:21:57;;;;;;;27.17;17.40;;;;;;;4.63;69.94;99680.95;252179;1105;116448;-68
2021/03/04 13:27:00;;;;;;;33.83;22.80;;;;;;;4.76;70.44;99691.57;251590;1105;115305;-67
2021/03/04 13:32:04;;;;;;;29.17;18.37;;;;;;;4.73;70.29;99695.41;252367;1105;117020;-67
2021/03/04 13:37:14;;;;;;;30.55;19.60;;;;;;;4.64;69.64;99693.13;252274;1105;115729;-66
2021/03/04 13:42:17;;;;;;;47.90;25.90;;;;;;;4.59;71.59;99701.64;253699;1104;114806;-67
2021/03/04 13:47:20;;;;;;;21.57;13.43;;;;;;;4.39;71.41;99693.64;253914;1105;115708;-67
2021/03/04 13:52:24;;;;;;;33.63;18.62;;;;;;;4.46;70.92;99701.59;254767;1105;115888;-67
2021/03/04 13:57:27;;;;;;;33.50;18.67;;;;;;;4.48;70.71;99698.77;254659;1104;115301;-67
2021/03/04 14:02:31;;;;;;;34.13;17.57;;;;;;;4.48;70.58;99686.38;254390;1105;115613;-65
2021/03/04 14:07:34;;;;;;;34.13;17.00;;;;;;;4.61;69.86;99690.89;254266;1104;115197;-68
2021/03/04 14:12:38;;;;;;;38.13;21.42;;;;;;;4.74;69.63;99686.48;253066;1105;116327;-68
2021/03/04 14:17:42;;;;;;;37.33;19.52;;;;;;;4.71;68.94;99683.42;252320;1105;117398;-67
2021/03/04 14:22:48;;;;;;;26.25;17.65;;;;;;;4.68;68.56;99691.73;251370;1105;117695;-65
2021/03/04 14:27:52;;;;;;;40.95;21.07;;;;;;;4.60;70.26;99687.44;253099;1104;116377;-67
2021/03/04 14:32:56;;;;;;;38.25;19.98;;;;;;;4.35;71.01;99689.77;252856;1105;116175;-67
2021/03/04 14:38:03;;;;;;;37.73;20.23;;;;;;;4.43;69.73;99685.34;252414;1105;116380;-64
2021/03/04 14:43:07;;;;;;;24.95;12.98;;;;;;;4.19;70.10;99678.73;252587;1104;115777;-66
2021/03/04 14:48:12;;;;;;;34.83;20.20;;;;;;;4.17;70.59;99676.28;252170;1105;115543;-67
2021/03/04 14:53:17;;;;;;;30.88;19.27;;;;;;;4.00;71.83;99664.39;252476;1105;117226;-65
2021/03/04 14:58:21;;;;;;;31.57;19.75;;;;;;;4.04;71.71;99665.64;251361;1105;116187;-65
2021/03/04 15:03:26;;;;;;;27.27;15.27;;;;;;;4.01;71.00;99666.84;251526;1105;115885;-66
2021/03/04 15:08:31;;;;;;;29.77;17.70;;;;;;;3.82;71.48;99670.18;252037;1105;117456;-67
2021/03/04 15:13:37;;;;;;;33.45;18.45;;;;;;;3.79;73.16;99670.56;251740;1105;116928;-67
2021/03/04 15:18:42;;;;;;;31.12;20.30;;;;;;;3.73;73.95;99663.41;251824;1105;115832;-67
2021/03/04 15:23:46;;;;;;;35.83;19.27;;;;;;;3.66;73.01;99660.75;251815;1104;115537;-66
2021/03/04 15:28:52;;;;;;;33.73;16.77;;;;;;;3.56;73.35;99662.90;252131;1105;115915;-65
2021/03/04 15:34:00;;;;;;;30.90;18.60;;;;;;;3.49;73.42;99654.12;252409;1104;117120;-64
2021/03/04 15:39:06;;;;;;;30.48;16.70;;;;;;;3.35;73.44;99660.30;254298;1105;116308;-63
2021/03/04 15:44:11;;;;;;;25.75;16.77;;;;;;;3.39;74.18;99658.89;254542;1104;115901;-63
2021/03/04 15:49:16;;;;;;;26.87;16.82;;;;;;;3.31;74.78;99648.52;254419;1105;115323;-64
2021/03/04 15:54:21;;;;;;;29.20;16.07;;;;;;;3.27;74.04;99655.16;254958;1105;115238;-63
2021/03/04 15:59:26;;;;;;;32.40;17.42;;;;;;;3.27;74.63;99653.34;254556;1105;114754;-63
2021/03/04 16:04:30;;;;;;;21.42;14.90;;;;;;;3.20;74.23;99646.38;254895;1104;115604;-63
2021/03/04 16:09:34;;;;;;;38.38;18.85;;;;;;;3.16;74.34;99667.00;254891;1104;115633;-63
2021/03/04 16:14:38;;;;;;;25.48;13.80;;;;;;;3.11;74.53;99669.38;254839;1105;114858;-63
2021/03/04 16:19:42;;;;;;;36.30;20.60;;;;;;;3.10;75.69;99682.73;254762;1104;115431;-68
2021/03/04 16:24:47;;;;;;;20.82;15.08;;;;;;;2.98;74.16;99688.52;252234;1105;115354;-68
2021/03/04 16:29:55;;;;;;;27.52;16.10;;;;;;;2.99;74.51;99681.44;251371;1105;116744;-68
2021/03/04 16:35:00;;;;;;;25.50;15.58;;;;;;;2.91;73.32;99677.09;252518;1105;117931;-68
2021/03/04 16:40:09;;;;;;;26.70;18.67;;;;;;;2.88;74.25;99685.36;251454;1105;116250;-66
2021/03/04 16:45:15;;;;;;;19.60;13.53;;;;;;;2.85;73.40;99685.73;251596;1105;117091;-66
2021/03/04 16:50:19;;;;;;;16.45;9.23;;;;;;;2.73;72.29;99689.87;251881;1105;117205;-66
2021/03/04 16:55:26;;;;;;;19.37;11.38;;;;;;;2.73;72.97;99691.69;251702;1105;116817;-67
2021/03/04 17:00:31;;;;;;;22.97;11.40;;;;;;;2.68;72.59;99689.60;252913;1105;115430;-65
2021/03/04 17:05:53;;;;;;;6.33;3.50;;;;;;;2.54;71.67;99687.80;252329;1105;115496;-64
2021/03/04 17:10:56;;;;;;;11.50;7.22;;;;;;;2.38;72.74;99696.72;251931;1105;115585;-65
2021/03/04 17:16:01;;;;;;;21.15;10.58;;;;;;;2.30;72.99;99697.63;251838;1105;116094;-62
2021/03/04 17:21:05;;;;;;;12.03;7.92;;;;;;;2.22;73.02;99692.45;251465;1105;116602;-64
2021/03/04 17:26:09;;;;;;;11.20;7.77;;;;;;;2.11;73.58;99687.67;252463;1105;117757;-64
2021/03/04 17:31:14;;;;;;;9.38;5.58;;;;;;;2.02;74.04;99697.45;252706;1104;115164;-66
2021/03/04 17:36:18;;;;;;;14.40;8.05;;;;;;;2.05;74.16;99696.27;253038;1105;116092;-65
2021/03/04 17:41:22;;;;;;;12.23;7.03;;;;;;;2.06;74.32;99694.46;252491;1105;115959;-65
2021/03/04 17:46:26;;;;;;;10.93;6.80;;;;;;;2.09;74.14;99699.36;252942;1105;115383;-64
2021/03/04 17:51:30;;;;;;;14.43;9.83;;;;;;;2.16;74.60;99694.98;253195;1105;116418;-65
2021/03/04 17:56:35;;;;;;;18.00;9.88;;;;;;;2.17;74.51;99697.44;252580;1104;120012;-65
2021/03/04 18:01:38;;;;;;;18.07;10.67;;;;;;;2.24;74.04;99695.72;253677;1105;139088;-65
2021/03/04 18:06:42;;;;;;;14.58;8.85;;;;;;;2.27;73.12;99689.28;254707;1104;115555;-66
2021/03/04 18:11:46;;;;;;;12.47;8.10;;;;;;;2.33;72.26;99692.00;254806;1105;115407;-68
2021/03/04 18:16:50;;;;;;;15.68;9.05;;;;;;;2.39;73.62;99684.38;253974;1104;115147;-68
2021/03/04 18:21:54;;;;;;;10.32;6.42;;;;;;;2.27;72.63;99676.95;254825;1104;115435;-68
2021/03/04 18:26:58;;;;;;;17.70;9.35;;;;;;;2.33;73.78;99676.22;254620;1105;115756;-67
2021/03/04 18:32:15;;;;;;;12.95;8.50;;;;;;;2.34;73.74;99671.78;254430;1104;114682;-65
2021/03/04 18:37:23;;;;;;;15.20;9.13;;;;;;;2.39;73.08;99671.23;253254;1104;115829;-66
2021/03/04 18:42:27;;;;;;;15.50;8.95;;;;;;;2.42;73.14;99679.58;252196;1105;114751;-68
2021/03/04 18:47:31;;;;;;;17.90;10.30;;;;;;;2.39;74.10;99681.76;251426;1105;114778;-68
2021/03/04 18:52:37;;;;;;;55.05;19.92;;;;;;;2.36;73.62;99675.86;253399;1105;114828;-67
2021/03/04 18:57:41;;;;;;;44.23;21.77;;;;;;;2.39;72.82;99681.76;251753;1105;116434;-67
2021/03/04 19:02:44;;;;;;;33.97;14.47;;;;;;;2.40;73.66;99675.50;252242;1105;115135;-70
2021/03/04 19:07:47;;;;;;;23.70;13.00;;;;;;;2.41;74.30;99677.95;252172;1105;115792;-72
2021/03/04 19:12:51;;;;;;;20.43;11.30;;;;;;;2.36;74.35;99680.30;251951;1105;115231;-69
2021/03/04 19:17:55;;;;;;;18.17;10.55;;;;;;;2.34;74.97;99683.11;251677;1105;115268;-68
2021/03/04 19:22:59;;;;;;;27.70;14.07;;;;;;;2.28;73.60;99683.02;252551;1105;116125;-68
2021/03/04 19:28:04;;;;;;;26.90;14.83;;;;;;;2.30;73.83;99681.84;251447;1105;115494;-65
2021/03/04 19:33:07;;;;;;;21.77;10.55;;;;;;;2.33;74.04;99683.30;253434;1104;115215;-65
2021/03/04 19:38:12;;;;;;;15.72;9.30;;;;;;;2.27;73.98;99687.47;251291;1105;115293;-66
2021/03/04 19:43:17;;;;;;;18.02;8.95;;;;;;;2.23;75.04;99683.56;251686;1105;114804;-63
2021/03/04 19:48:22;;;;;;;17.75;10.98;;;;;;;2.19;74.96;99681.48;252608;1105;115231;-67
2021/03/04 19:53:26;;;;;;;25.90;14.55;;;;;;;2.19;74.76;99679.66;253324;1105;114920;-69
2021/03/04 19:58:32;;;;;;;23.40;12.37;;;;;;;2.22;74.89;99679.30;251718;1105;115155;-69
2021/03/04 20:03:36;;;;;;;26.68;12.82;;;;;;;2.18;74.32;99666.70;253659;1104;115655;-68
2021/03/04 20:08:39;;;;;;;22.10;12.80;;;;;;;2.16;75.79;99682.66;251352;1105;115201;-69
2021/03/04 20:13:43;;;;;;;19.20;11.03;;;;;;;2.11;74.17;99681.59;253917;1105;116187;-67
2021/03/04 20:18:47;;;;;;;25.95;13.70;;;;;;;2.12;76.16;99683.22;254536;1104;116117;-71
2021/03/04 20:23:55;;;;;;;25.85;13.90;;;;;;;2.23;75.37;99696.72;254570;1105;115798;-72
2021/03/04 20:28:59;;;;;;;24.12;12.43;;;;;;;2.31;74.39;99694.00;254805;1104;116871;-73
2021/03/04 20:34:03;;;;;;;25.07;14.87;;;;;;;2.29;76.00;99695.17;252688;1105;115155;-72
2021/03/04 20:39:07;;;;;;;24.50;13.28;;;;;;;2.25;75.43;99689.46;253753;1105;116076;-69
2021/03/04 20:44:11;;;;;;;28.75;14.25;;;;;;;2.28;75.96;99677.77;252296;1105;115651;-70
2021/03/04 20:49:14;;;;;;;30.15;14.15;;;;;;;2.27;75.73;99687.47;252553;1105;115252;-68
2021/03/04 20:54:19;;;;;;;18.10;10.53;;;;;;;2.21;76.43;99692.63;251608;1104;114969;-65
2021/03/04 20:59:26;;;;;;;24.10;14.60;;;;;;;2.21;77.49;99696.08;252298;1104;115235;-64
2021/03/04 21:04:32;;;;;;;34.03;15.13;;;;;;;2.18;76.66;99695.63;252581;1104;115677;-64
2021/03/04 21:09:36;;;;;;;29.30;15.13;;;;;;;2.26;77.11;99692.91;253569;1105;115099;-66
2021/03/04 21:14:39;;;;;;;22.85;14.55;;;;;;;2.27;75.92;99697.98;251813;1105;116011;-65
2021/03/04 21:19:43;;;;;;;25.72;12.75;;;;;;;2.21;77.42;99696.08;251364;1105;114874;-64
2021/03/04 21:24:47;;;;;;;32.25;14.87;;;;;;;2.19;76.71;99702.52;252551;1104;117813;-67
2021/03/04 21:29:51;;;;;;;31.75;16.80;;;;;;;2.14;76.61;99713.58;252790;1105;115516;-69
2021/03/04 21:34:57;;;;;;;25.72;14.80;;;;;;;2.16;77.21;99711.58;252705;1105;114957;-66
2021/03/04 21:40:05;;;;;;;26.60;16.45;;;;;;;2.16;77.16;99716.84;252437;1105;115842;-67
2021/03/04 21:45:13;;;;;;;32.60;16.60;;;;;;;2.14;77.20;99708.31;253001;1105;114942;-70
2021/03/04 21:50:17;;;;;;;34.55;17.05;;;;;;;2.06;77.95;99705.80;252979;1105;114840;-69
2021/03/04 21:55:20;;;;;;;28.23;15.03;;;;;;;2.12;78.08;99715.59;251672;1105;116061;-65
2021/03/04 22:00:23;;;;;;;33.83;14.80;;;;;;;2.11;78.15;99718.41;251560;1105;116592;-67
2021/03/04 22:05:28;;;;;;;37.00;17.75;;;;;;;2.10;79.21;99712.33;253897;1104;114945;-65
2021/03/04 22:10:31;;;;;;;27.35;16.23;;;;;;;2.08;79.29;99724.84;253578;1104;115338;-66
2021/03/04 22:15:35;;;;;;;34.78;18.35;;;;;;;2.03;79.51;99722.74;252587;1105;114779;-68
2021/03/04 22:20:38;;;;;;;29.35;15.72;;;;;;;2.10;78.67;99728.11;254586;1105;115610;-67
2021/03/04 22:25:41;;;;;;;25.30;16.20;;;;;;;2.07;79.84;99725.83;254742;1105;114958;-66
2021/03/04 22:30:44;;;;;;;31.10;16.70;;;;;;;2.06;79.56;99716.31;254620;1104;115394;-67
2021/03/04 22:35:48;;;;;;;26.52;18.02;;;;;;;2.03;79.56;99716.67;254349;1104;114870;-69
2021/03/04 22:40:52;;;;;;;31.90;17.27;;;;;;;2.09;80.70;99712.51;253227;1104;116115;-70
2021/03/04 22:45:55;;;;;;;33.78;18.70;;;;;;;2.11;81.25;99711.33;252614;1105;115364;-65
2021/03/04 22:50:59;;;;;;;25.90;15.63;;;;;;;2.10;79.65;99717.59;251864;1105;116451;-64
2021/03/04 22:56:03;;;;;;;34.13;15.23;;;;;;;2.08;80.85;99710.87;251912;1104;115271;-65
2021/03/04 23:01:06;;;;;;;32.67;16.45;;;;;;;1.99;80.58;99713.58;253625;1105;115911;-72
2021/03/04 23:06:11;;;;;;;31.20;14.78;;;;;;;1.92;81.33;99712.66;251563;1105;115479;-67